Kingsgate, Washington
Current Conditions -  °F | °C
As of 1:53 PM on Saturday 25 Oct 2014 (Local Time) from KBFI Reporting Station
Light Rain Light Rain  
Wind Chill: 14°   Ceiling: 7500
Heat Index: 14°   Visibility: 10mi
Dew Point: 11°   Wind: 0mph
Humidity: 81%   Direction: NA
Pressure: 29.34"   Gusts: NA
Location:  47.7179°N, 122.204°W
Report Text: KBFI 252053Z 00000KT 10SM -RA BKN075 14/11 A2934 RMK AO2 RAE16B53 SLP934 P0001 60002 T01390106 56036
Loading
Personal Weather Stations






























Interactive Weather Map
Tropical Storm Tracking
New forecast layout! Learn more

10-Day Weather Forecast

Advertisements
Track Severe Weather on mobile